createdAt,value
2022-12-24T00:02:21.146Z,1.30
2022-12-24T00:04:47.789Z,1.20
2022-12-24T00:07:14.467Z,1.30
2022-12-24T00:09:40.982Z,1.20
2022-12-24T00:12:07.739Z,1.37
2022-12-24T00:14:34.306Z,1.33
2022-12-24T00:17:01.010Z,1.37
2022-12-24T00:19:27.549Z,1.37
2022-12-24T00:21:54.191Z,1.30
2022-12-24T00:24:20.756Z,1.57
2022-12-24T00:26:47.305Z,1.37
2022-12-24T00:29:13.906Z,1.30
2022-12-24T00:31:40.429Z,1.20
2022-12-24T00:34:08.664Z,1.20
2022-12-24T00:36:35.231Z,1.40
2022-12-24T00:39:01.921Z,1.20
2022-12-24T00:41:31.040Z,1.23
2022-12-24T00:44:02.350Z,1.40
2022-12-24T00:46:30.205Z,1.60
2022-12-24T00:48:57.129Z,1.40
2022-12-24T00:51:23.913Z,1.40
2022-12-24T00:53:50.544Z,1.40
2022-12-24T00:56:17.587Z,1.20
2022-12-24T00:58:44.213Z,1.00
2022-12-24T01:01:10.858Z,1.50
2022-12-24T01:03:37.569Z,1.23
2022-12-24T01:06:09.167Z,3.00
2022-12-24T01:08:35.732Z,1.30
2022-12-24T01:11:03.011Z,1.73
2022-12-24T01:13:29.693Z,1.40
2022-12-24T01:15:56.278Z,1.33
2022-12-24T01:18:23.041Z,1.00
2022-12-24T01:20:59.619Z,1.00
2022-12-24T01:23:26.579Z,1.47
2022-12-24T01:25:53.121Z,1.50
2022-12-24T01:28:20.406Z,1.10
2022-12-24T01:30:47.375Z,1.07
2022-12-24T01:33:14.049Z,1.20
2022-12-24T01:35:43.669Z,1.30
2022-12-24T01:38:11.835Z,0.90
2022-12-24T01:40:58.061Z,1.57
2022-12-24T01:43:26.384Z,1.00
2022-12-24T01:46:07.147Z,1.00
2022-12-24T01:48:48.016Z,1.23
2022-12-24T01:51:14.484Z,1.10
2022-12-24T01:53:42.153Z,1.17
2022-12-24T01:56:08.738Z,1.30
2022-12-24T01:58:35.380Z,1.20
2022-12-24T02:01:02.062Z,1.20
2022-12-24T02:03:28.782Z,1.30
2022-12-24T02:05:56.342Z,1.27
2022-12-24T02:08:22.963Z,1.20
2022-12-24T02:10:49.634Z,1.23
2022-12-24T02:13:17.951Z,1.20
2022-12-24T02:15:50.507Z,1.17
2022-12-24T02:18:34.404Z,1.23
2022-12-24T02:21:00.824Z,1.00
2022-12-24T02:23:41.907Z,1.10
2022-12-24T02:26:24.702Z,1.00
2022-12-24T02:29:26.726Z,1.07
2022-12-24T02:32:10.122Z,1.10
2022-12-24T02:34:42.695Z,1.20
2022-12-24T02:37:18.039Z,1.20
2022-12-24T02:39:49.354Z,1.00
2022-12-24T02:42:17.490Z,1.10
2022-12-24T02:44:49.246Z,1.00
2022-12-24T02:47:15.829Z,1.10
2022-12-24T02:49:44.515Z,1.20
2022-12-24T02:52:40.176Z,1.30
2022-12-24T02:55:32.498Z,1.07
2022-12-24T02:58:05.031Z,1.50
2022-12-24T03:00:53.933Z,0.90
2022-12-24T03:03:38.351Z,1.03
2022-12-24T03:06:10.662Z,1.53
2022-12-24T03:08:47.944Z,0.87
2022-12-24T03:11:15.434Z,1.83
2022-12-24T03:13:42.668Z,1.30
2022-12-24T03:16:11.423Z,1.00
2022-12-24T03:18:39.028Z,1.20
2022-12-24T03:21:32.113Z,1.27
2022-12-24T03:23:58.718Z,1.20
2022-12-24T03:26:25.231Z,1.00
2022-12-24T03:28:51.802Z,1.13
2022-12-24T03:31:18.756Z,1.10
2022-12-24T03:33:45.670Z,1.20
2022-12-24T03:36:12.325Z,1.17
2022-12-24T03:38:38.947Z,1.20
2022-12-24T03:41:05.827Z,1.73
2022-12-24T03:43:32.519Z,1.10
2022-12-24T03:45:59.165Z,0.90
2022-12-24T03:48:32.346Z,1.00
2022-12-24T03:50:59.335Z,0.97
2022-12-24T03:53:25.876Z,1.20
2022-12-24T03:55:52.390Z,1.17
2022-12-24T03:58:18.938Z,1.00
2022-12-24T04:00:45.574Z,0.97
2022-12-24T04:03:12.288Z,0.90
2022-12-24T04:05:38.915Z,1.37
2022-12-24T04:08:05.598Z,1.10
2022-12-24T04:10:32.204Z,1.20
2022-12-24T04:12:58.852Z,1.20
2022-12-24T04:15:25.426Z,1.20
2022-12-24T04:17:52.000Z,1.30
2022-12-24T04:20:18.786Z,1.17
2022-12-24T04:22:45.344Z,1.00
2022-12-24T04:25:11.976Z,1.00
2022-12-24T04:27:38.613Z,1.30
2022-12-24T04:30:05.805Z,1.03
2022-12-24T04:32:32.480Z,0.90
2022-12-24T04:34:59.064Z,1.13
2022-12-24T04:37:25.578Z,1.00
2022-12-24T04:39:52.190Z,1.20
2022-12-24T04:42:20.070Z,1.00
2022-12-24T04:44:46.578Z,1.40
2022-12-24T04:47:13.206Z,0.80
2022-12-24T04:49:39.751Z,1.20
2022-12-24T04:52:06.349Z,1.00
2022-12-24T04:54:32.987Z,1.10
2022-12-24T04:56:59.575Z,1.50
2022-12-24T04:59:26.047Z,1.30
2022-12-24T05:01:52.725Z,1.10
2022-12-24T05:04:19.416Z,1.00
2022-12-24T05:06:45.981Z,1.23
2022-12-24T05:09:12.665Z,1.80
2022-12-24T05:11:39.309Z,0.90
2022-12-24T05:14:05.810Z,1.20
2022-12-24T05:16:32.306Z,1.10
2022-12-24T05:18:58.833Z,1.20
2022-12-24T05:21:25.313Z,1.00
2022-12-24T05:24:10.951Z,1.23
2022-12-24T05:26:42.881Z,1.03
2022-12-24T05:29:09.532Z,1.00
2022-12-24T05:31:36.478Z,1.00
2022-12-24T05:34:03.326Z,1.10
2022-12-24T05:36:29.935Z,1.10
2022-12-24T05:38:56.425Z,1.00
2022-12-24T05:41:23.042Z,1.30
2022-12-24T05:43:49.618Z,1.20
2022-12-24T05:46:18.738Z,1.00
2022-12-24T05:48:45.430Z,1.07
2022-12-24T05:51:12.919Z,1.10
2022-12-24T05:53:39.487Z,0.90
2022-12-24T05:56:10.772Z,0.97
2022-12-24T05:58:37.493Z,1.07
2022-12-24T06:01:04.344Z,1.00
2022-12-24T06:03:31.066Z,1.10
2022-12-24T06:06:08.032Z,1.27
2022-12-24T06:08:34.799Z,1.10
2022-12-24T06:11:03.593Z,1.07
2022-12-24T06:13:30.516Z,1.20
2022-12-24T06:15:58.024Z,1.20
2022-12-24T06:18:24.669Z,1.00
2022-12-24T06:20:54.579Z,1.00
2022-12-24T06:23:21.445Z,1.10
2022-12-24T06:25:48.049Z,1.23
2022-12-24T06:28:14.608Z,1.30
2022-12-24T06:30:41.487Z,1.00
2022-12-24T06:33:08.099Z,0.90
2022-12-24T06:35:34.612Z,1.00
2022-12-24T06:38:01.119Z,2.03
2022-12-24T06:40:27.986Z,1.27
2022-12-24T06:42:54.493Z,1.27
2022-12-24T06:45:21.024Z,1.00
2022-12-24T06:47:47.572Z,1.17
2022-12-24T06:50:14.078Z,1.53
2022-12-24T06:52:40.658Z,2.20
2022-12-24T06:55:07.780Z,4.10
2022-12-24T06:57:34.309Z,3.87
2022-12-24T07:00:00.821Z,3.13
2022-12-24T07:02:27.520Z,4.03
2022-12-24T07:04:54.124Z,5.20
2022-12-24T07:07:20.641Z,4.37
2022-12-24T07:09:47.220Z,3.23
2022-12-24T07:12:13.711Z,2.70
2022-12-24T07:14:40.230Z,3.30
2022-12-24T07:17:06.881Z,2.40
2022-12-24T07:19:34.321Z,3.27
2022-12-24T07:22:00.815Z,3.17
2022-12-24T07:24:27.378Z,4.53
2022-12-24T07:26:53.887Z,3.33
2022-12-24T07:29:20.608Z,3.20
2022-12-24T07:31:47.216Z,3.97
2022-12-24T07:34:13.788Z,3.83
2022-12-24T07:36:40.363Z,3.33
2022-12-24T07:39:06.846Z,2.63
2022-12-24T07:41:37.919Z,3.17
2022-12-24T07:44:11.752Z,3.43
2022-12-24T07:46:38.308Z,3.63
2022-12-24T07:49:04.835Z,4.60
2022-12-24T07:51:31.373Z,4.33
2022-12-24T07:53:57.917Z,5.57
2022-12-24T07:56:24.479Z,5.47
2022-12-24T07:58:51.536Z,3.30
2022-12-24T08:01:18.633Z,6.13
2022-12-24T08:03:45.520Z,4.33
2022-12-24T08:06:12.214Z,2.80
2022-12-24T08:08:38.812Z,2.10
2022-12-24T08:11:06.346Z,4.20
2022-12-24T08:13:32.858Z,3.63
2022-12-24T08:15:59.539Z,3.13
2022-12-24T08:18:26.075Z,5.77
2022-12-24T08:20:52.687Z,2.40
2022-12-24T08:23:19.199Z,3.27
2022-12-24T08:25:46.538Z,3.70
2022-12-24T08:28:17.860Z,2.73
2022-12-24T08:30:44.502Z,1.67
2022-12-24T08:33:11.151Z,2.10
2022-12-24T08:35:37.658Z,2.57
2022-12-24T08:38:04.222Z,2.30
2022-12-24T08:40:30.709Z,2.20
2022-12-24T08:42:57.319Z,2.03
2022-12-24T08:45:23.874Z,2.07
2022-12-24T08:47:50.409Z,1.80
2022-12-24T08:50:16.952Z,3.23
2022-12-24T08:52:43.591Z,2.60
2022-12-24T08:55:10.166Z,1.40
2022-12-24T08:57:37.305Z,3.00
2022-12-24T09:00:05.583Z,1.50
2022-12-24T09:02:32.232Z,2.97
2022-12-24T09:04:58.819Z,2.13
2022-12-24T09:07:25.409Z,2.70
2022-12-24T09:09:51.937Z,1.53
2022-12-24T09:12:18.458Z,2.37
2022-12-24T09:14:45.024Z,1.77
2022-12-24T09:17:11.549Z,2.83
2022-12-24T09:19:38.121Z,2.00
2022-12-24T09:22:04.723Z,1.40
2022-12-24T09:24:31.370Z,1.30
2022-12-24T09:26:58.333Z,1.63
2022-12-24T09:29:25.287Z,1.77
2022-12-24T09:31:51.921Z,1.50
2022-12-24T09:34:18.530Z,1.90
2022-12-24T09:36:46.232Z,1.67
2022-12-24T09:39:13.007Z,2.27
2022-12-24T09:41:45.445Z,2.27
2022-12-24T09:44:25.417Z,1.60
2022-12-24T09:46:52.052Z,1.43
2022-12-24T09:49:20.560Z,1.90
2022-12-24T09:51:53.155Z,1.83
2022-12-24T09:54:25.768Z,1.73
2022-12-24T09:56:52.314Z,1.30
2022-12-24T09:59:23.338Z,1.70
2022-12-24T10:01:51.747Z,3.40
2022-12-24T10:04:20.746Z,1.80
2022-12-24T10:07:09.570Z,1.87
2022-12-24T10:09:38.924Z,1.87
2022-12-24T10:12:23.741Z,1.60
2022-12-24T10:15:15.425Z,1.60
2022-12-24T10:18:00.113Z,1.20
2022-12-24T10:20:37.438Z,2.30
2022-12-24T10:23:13.036Z,1.20
2022-12-24T10:26:06.505Z,3.53
2022-12-24T10:28:58.889Z,1.70
2022-12-24T10:31:31.295Z,1.67
2022-12-24T10:34:02.251Z,2.57
2022-12-24T10:36:29.777Z,1.37
2022-12-24T10:38:56.403Z,2.27
2022-12-24T10:41:23.406Z,1.43
2022-12-24T10:43:49.977Z,2.30
2022-12-24T10:46:23.485Z,1.13
2022-12-24T10:49:01.757Z,1.67
2022-12-24T10:51:54.234Z,1.50
2022-12-24T10:54:26.975Z,2.93
2022-12-24T10:56:58.634Z,3.23
2022-12-24T10:59:28.129Z,4.23
2022-12-24T11:01:55.528Z,2.90
2022-12-24T11:04:25.160Z,2.43
2022-12-24T11:06:56.349Z,3.80
2022-12-24T11:09:27.216Z,3.03
2022-12-24T11:11:54.573Z,5.10
2022-12-24T11:14:21.321Z,3.80
2022-12-24T11:16:49.940Z,2.13
2022-12-24T11:19:18.508Z,2.37
2022-12-24T11:21:45.141Z,2.67
2022-12-24T11:24:23.794Z,3.07
2022-12-24T11:26:50.487Z,3.30
2022-12-24T11:29:24.743Z,3.43
2022-12-24T11:31:52.754Z,2.37
2022-12-24T11:34:26.411Z,6.10
2022-12-24T11:36:53.717Z,5.23
2022-12-24T11:39:29.244Z,3.83
2022-12-24T11:41:55.768Z,2.33
2022-12-24T11:44:26.703Z,4.97
2022-12-24T11:46:56.807Z,2.63
2022-12-24T11:49:30.234Z,3.10
2022-12-24T11:52:12.027Z,2.90
2022-12-24T11:55:18.361Z,3.40
2022-12-24T11:58:40.470Z,1.43
2022-12-24T12:01:16.283Z,1.63
2022-12-24T12:03:48.178Z,2.00
2022-12-24T12:06:24.087Z,3.73
2022-12-24T12:08:51.071Z,1.97
2022-12-24T12:11:17.672Z,2.57
2022-12-24T12:13:44.320Z,2.40
2022-12-24T12:16:28.910Z,2.20
2022-12-24T12:19:05.647Z,1.90
2022-12-24T12:21:41.461Z,2.77
2022-12-24T12:24:13.329Z,1.67
2022-12-24T12:26:39.823Z,1.70
2022-12-24T12:29:24.953Z,1.60
2022-12-24T12:31:55.398Z,2.93
2022-12-24T12:34:36.736Z,1.57
2022-12-24T12:37:20.257Z,1.50
2022-12-24T12:39:46.805Z,1.67
2022-12-24T12:42:19.435Z,2.23
2022-12-24T12:44:52.023Z,1.77
2022-12-24T12:47:52.376Z,1.60
2022-12-24T12:50:58.937Z,4.33
2022-12-24T12:53:35.668Z,2.93
2022-12-24T12:56:20.483Z,5.37
2022-12-24T12:59:04.813Z,3.83
2022-12-24T13:01:39.598Z,3.67
2022-12-24T13:04:11.076Z,7.77
2022-12-24T13:06:52.885Z,5.97
2022-12-24T13:09:53.065Z,5.03
2022-12-24T13:12:38.340Z,6.10
2022-12-24T13:15:14.160Z,3.83
2022-12-24T13:17:43.650Z,3.83
2022-12-24T13:20:29.837Z,3.37
2022-12-24T13:23:01.305Z,2.97
2022-12-24T13:25:51.008Z,2.90
2022-12-24T13:28:23.466Z,4.20
2022-12-24T13:30:50.875Z,4.93
2022-12-24T13:33:35.771Z,2.97
2022-12-24T13:36:03.760Z,4.27
2022-12-24T13:38:32.681Z,3.73
2022-12-24T13:41:38.702Z,3.67
2022-12-24T13:44:07.096Z,3.37
2022-12-24T13:46:58.615Z,3.10
2022-12-24T13:49:28.224Z,3.37
2022-12-24T13:52:22.608Z,3.00
2022-12-24T13:54:55.239Z,4.70
2022-12-24T13:57:40.157Z,4.43
2022-12-24T14:00:13.099Z,2.57
2022-12-24T14:02:55.449Z,3.17
2022-12-24T14:05:31.021Z,3.50
2022-12-24T14:07:57.726Z,4.43
2022-12-24T14:10:30.289Z,3.03
2022-12-24T14:12:56.835Z,4.40
2022-12-24T14:15:51.699Z,4.57
2022-12-24T14:18:23.820Z,4.60
2022-12-24T14:20:55.316Z,3.33
2022-12-24T14:23:45.317Z,3.00
2022-12-24T14:26:18.257Z,4.00
2022-12-24T14:29:16.480Z,3.00
2022-12-24T14:31:55.496Z,8.13
2022-12-24T14:34:22.789Z,5.63
2022-12-24T14:36:50.167Z,5.10
2022-12-24T14:39:30.738Z,4.37
2022-12-24T14:42:06.161Z,2.30
2022-12-24T14:45:06.914Z,6.77
2022-12-24T14:48:01.426Z,10.27
2022-12-24T14:50:40.908Z,2.83
2022-12-24T14:53:34.149Z,3.70
2022-12-24T14:56:08.972Z,3.43
2022-12-24T14:58:40.186Z,4.33
2022-12-24T15:01:24.445Z,2.63
2022-12-24T15:04:09.894Z,2.80
2022-12-24T15:06:53.346Z,2.63
2022-12-24T15:09:21.065Z,3.23
2022-12-24T15:11:48.938Z,2.73
2022-12-24T15:14:15.625Z,3.33
2022-12-24T15:16:42.306Z,3.13
2022-12-24T15:19:26.940Z,4.43
2022-12-24T15:21:54.059Z,2.77
2022-12-24T15:24:45.503Z,3.80
2022-12-24T15:27:17.414Z,2.20
2022-12-24T15:29:45.111Z,3.10
2022-12-24T15:32:16.275Z,2.53
2022-12-24T15:34:47.289Z,2.60
2022-12-24T15:37:21.743Z,2.80
2022-12-24T15:39:55.717Z,2.63
2022-12-24T15:42:22.748Z,2.77
2022-12-24T15:45:12.675Z,2.33
2022-12-24T15:47:52.540Z,3.47
2022-12-24T15:50:29.868Z,3.00
2022-12-24T15:53:20.197Z,2.80
2022-12-24T15:55:47.824Z,3.07
2022-12-24T15:58:25.698Z,3.83
2022-12-24T16:01:02.384Z,3.57
2022-12-24T16:03:29.130Z,4.73
2022-12-24T16:06:00.465Z,3.67
2022-12-24T16:08:29.667Z,2.50
2022-12-24T16:11:05.261Z,2.20
2022-12-24T16:13:33.484Z,2.67
2022-12-24T16:16:00.999Z,2.80
2022-12-24T16:18:38.813Z,2.40
2022-12-24T16:21:05.750Z,2.43
2022-12-24T16:23:53.287Z,3.47
2022-12-24T16:26:20.236Z,2.63
2022-12-24T16:28:46.833Z,2.87
2022-12-24T16:31:18.029Z,2.50
2022-12-24T16:33:45.346Z,4.00
2022-12-24T16:36:12.022Z,2.77
2022-12-24T16:38:56.939Z,2.33
2022-12-24T16:41:23.550Z,5.37
2022-12-24T16:43:50.208Z,3.43
2022-12-24T16:46:16.865Z,2.23
2022-12-24T16:48:46.469Z,1.93
2022-12-24T16:51:13.004Z,2.30
2022-12-24T16:53:39.625Z,2.30
2022-12-24T16:56:06.720Z,4.40
2022-12-24T16:58:33.616Z,2.17
2022-12-24T17:01:06.766Z,2.87
2022-12-24T17:03:33.712Z,3.10
2022-12-24T17:06:01.811Z,2.77
2022-12-24T17:08:28.495Z,4.20
2022-12-24T17:10:55.054Z,1.70
2022-12-24T17:13:21.611Z,2.47
2022-12-24T17:15:48.301Z,3.80
2022-12-24T17:18:15.120Z,2.17
2022-12-24T17:20:41.641Z,2.63
2022-12-24T17:23:08.299Z,2.50
2022-12-24T17:25:36.046Z,2.23
2022-12-24T17:28:02.700Z,2.50
2022-12-24T17:30:29.222Z,1.87
2022-12-24T17:32:55.891Z,2.63
2022-12-24T17:35:22.510Z,1.97
2022-12-24T17:37:49.140Z,2.80
2022-12-24T17:40:15.768Z,2.67
2022-12-24T17:42:43.633Z,2.53
2022-12-24T17:45:10.506Z,2.37
2022-12-24T17:47:37.028Z,2.10
2022-12-24T17:50:03.830Z,2.20
2022-12-24T17:52:30.359Z,2.07
2022-12-24T17:54:56.906Z,2.73
2022-12-24T17:57:23.553Z,2.07
2022-12-24T17:59:50.250Z,2.53
2022-12-24T18:02:16.939Z,2.23
2022-12-24T18:04:43.797Z,2.17
2022-12-24T18:07:10.293Z,2.10
2022-12-24T18:09:36.853Z,1.83
2022-12-24T18:12:03.800Z,2.03
2022-12-24T18:14:30.357Z,3.03
2022-12-24T18:16:57.091Z,2.03
2022-12-24T18:19:23.851Z,2.43
2022-12-24T18:21:50.420Z,2.10
2022-12-24T18:24:18.157Z,3.87
2022-12-24T18:26:45.881Z,2.37
2022-12-24T18:29:12.704Z,2.50
2022-12-24T18:31:39.315Z,2.10
2022-12-24T18:34:07.159Z,2.20
2022-12-24T18:36:34.238Z,2.17
2022-12-24T18:39:01.195Z,2.50
2022-12-24T18:41:31.953Z,2.77
2022-12-24T18:43:58.940Z,1.90
2022-12-24T18:46:27.161Z,2.30
2022-12-24T18:48:54.490Z,2.20
2022-12-24T18:51:24.918Z,2.43
2022-12-24T18:53:51.520Z,2.43
2022-12-24T18:56:20.463Z,1.90
2022-12-24T18:58:47.055Z,2.27
2022-12-24T19:01:19.048Z,2.73
2022-12-24T19:03:45.873Z,2.07
2022-12-24T19:06:12.406Z,2.13
2022-12-24T19:11:25.902Z,2.10
2022-12-24T19:13:53.197Z,2.10
2022-12-24T19:16:20.121Z,1.90
2022-12-24T19:18:46.781Z,2.40
2022-12-24T19:21:13.953Z,2.30
2022-12-24T19:23:40.766Z,2.00
2022-12-24T19:26:07.439Z,2.50
2022-12-24T19:28:34.233Z,2.47
2022-12-24T19:31:09.243Z,2.33
2022-12-24T19:33:46.135Z,2.63
2022-12-24T19:36:15.083Z,2.43
2022-12-24T19:38:43.321Z,2.73
2022-12-24T19:41:15.535Z,4.13
2022-12-24T19:43:43.589Z,5.70
2022-12-24T19:46:12.617Z,4.17
2022-12-24T19:48:39.711Z,3.10
2022-12-24T19:51:08.369Z,3.20
2022-12-24T19:53:35.464Z,2.93
2022-12-24T19:56:02.430Z,3.53
2022-12-24T19:58:29.192Z,3.87
2022-12-24T20:00:55.972Z,3.83
2022-12-24T20:03:22.793Z,2.97
2022-12-24T20:05:49.781Z,2.70
2022-12-24T20:08:16.693Z,4.93
2022-12-24T20:10:46.597Z,2.73
2022-12-24T20:15:53.807Z,3.87
2022-12-24T20:18:20.455Z,2.80
2022-12-24T20:20:47.019Z,2.63
2022-12-24T20:23:13.721Z,3.20
2022-12-24T20:25:40.469Z,3.20
2022-12-24T20:28:07.122Z,4.83
2022-12-24T20:30:36.985Z,2.90
2022-12-24T20:33:03.788Z,4.30
2022-12-24T20:35:30.460Z,2.80
2022-12-24T20:37:57.092Z,2.80
2022-12-24T20:40:23.730Z,3.43
2022-12-24T20:42:53.394Z,3.00
2022-12-24T20:45:21.685Z,2.50
2022-12-24T20:47:49.867Z,2.77
2022-12-24T20:50:25.344Z,4.17
2022-12-24T20:52:52.314Z,3.47
2022-12-24T20:55:25.493Z,4.87
2022-12-24T20:57:59.930Z,3.17
2022-12-24T21:00:29.741Z,2.30
2022-12-24T21:05:37.698Z,3.97
2022-12-24T21:08:07.096Z,2.20
2022-12-24T21:10:43.224Z,2.53
2022-12-24T21:13:16.075Z,2.50
2022-12-24T21:15:42.905Z,2.60
2022-12-24T21:18:31.166Z,2.70
2022-12-24T21:20:57.998Z,2.60
2022-12-24T21:23:24.767Z,2.60
2022-12-24T21:26:09.147Z,2.60
2022-12-24T21:28:38.400Z,2.40
2022-12-24T21:31:13.346Z,2.67
2022-12-24T21:33:49.261Z,2.90
2022-12-24T21:36:19.154Z,2.43
2022-12-24T21:38:45.917Z,2.30
2022-12-24T21:41:15.846Z,2.40
2022-12-24T21:43:43.070Z,2.50
2022-12-24T21:46:22.247Z,2.50
2022-12-24T21:49:17.109Z,2.77
2022-12-24T21:51:48.989Z,2.80
2022-12-24T21:54:27.527Z,2.53
2022-12-24T21:57:15.992Z,2.53
2022-12-24T21:59:45.445Z,2.50
2022-12-24T22:02:17.367Z,2.30
2022-12-24T22:04:44.473Z,2.50
2022-12-24T22:07:47.632Z,2.60
2022-12-24T22:13:23.533Z,2.50
2022-12-24T22:15:51.487Z,2.87
2022-12-24T22:18:25.989Z,2.60
2022-12-24T22:20:58.440Z,2.40
2022-12-24T22:23:31.132Z,2.87
2022-12-24T22:25:57.889Z,2.37
2022-12-24T22:28:27.752Z,2.50
2022-12-24T22:30:55.182Z,2.70
2022-12-24T22:33:25.529Z,2.73
2022-12-24T22:35:55.406Z,2.50
2022-12-24T22:38:22.142Z,3.03
2022-12-24T22:40:49.629Z,2.50
2022-12-24T22:43:21.979Z,2.77
2022-12-24T22:45:51.471Z,2.10
2022-12-24T22:48:18.752Z,2.60
2022-12-24T22:50:56.068Z,3.30
2022-12-24T22:53:23.125Z,3.27
2022-12-24T22:56:02.688Z,2.40
2022-12-24T22:58:33.470Z,2.40
2022-12-24T23:01:09.166Z,2.73
2022-12-24T23:03:36.027Z,2.23
2022-12-24T23:06:04.421Z,2.40
2022-12-24T23:08:32.326Z,2.60
2022-12-24T23:11:17.331Z,2.30
2022-12-24T23:14:08.266Z,2.53
2022-12-24T23:16:35.197Z,2.60
2022-12-24T23:19:05.778Z,2.43
2022-12-24T23:21:32.589Z,2.37
2022-12-24T23:24:00.272Z,2.50
2022-12-24T23:26:29.725Z,2.17
2022-12-24T23:28:56.669Z,2.30
2022-12-24T23:31:37.210Z,2.77
2022-12-24T23:34:04.200Z,2.40
2022-12-24T23:36:34.124Z,2.40
2022-12-24T23:39:10.200Z,2.40
2022-12-24T23:41:37.048Z,2.40
2022-12-24T23:44:04.133Z,2.57
2022-12-24T23:46:38.816Z,2.30
2022-12-24T23:49:06.032Z,2.30
2022-12-24T23:51:35.112Z,2.50
2022-12-24T23:54:04.810Z,2.47
2022-12-24T23:56:31.776Z,2.60
2022-12-24T23:58:58.581Z,2.30
